sensor_id;sensor_type;location;lat;lon;timestamp;P1;durP1;ratioP1;P2;durP2;ratioP2
22223;SDS011;11281;52.194;21.006;2022-08-03T00:03:13;12.85;;;8.85;;
22223;SDS011;11281;52.194;21.006;2022-08-03T00:07:15;12.20;;;8.48;;
22223;SDS011;11281;52.194;21.006;2022-08-03T00:11:16;10.63;;;8.48;;
22223;SDS011;11281;52.194;21.006;2022-08-03T00:15:18;12.98;;;9.23;;
22223;SDS011;11281;52.194;21.006;2022-08-03T00:19:20;12.02;;;9.32;;
22223;SDS011;11281;52.194;21.006;2022-08-03T00:23:22;9.88;;;8.60;;
22223;SDS011;11281;52.194;21.006;2022-08-03T00:27:24;11.95;;;8.82;;
22223;SDS011;11281;52.194;21.006;2022-08-03T00:31:25;9.43;;;8.43;;
22223;SDS011;11281;52.194;21.006;2022-08-03T00:35:27;16.00;;;7.88;;
22223;SDS011;11281;52.194;21.006;2022-08-03T00:39:30;11.55;;;8.75;;
22223;SDS011;11281;52.194;21.006;2022-08-03T00:43:31;12.45;;;8.65;;
22223;SDS011;11281;52.194;21.006;2022-08-03T00:47:33;11.98;;;8.52;;
22223;SDS011;11281;52.194;21.006;2022-08-03T00:51:37;9.70;;;8.18;;
22223;SDS011;11281;52.194;21.006;2022-08-03T00:55:39;8.77;;;7.75;;
22223;SDS011;11281;52.194;21.006;2022-08-03T00:59:42;9.48;;;7.93;;
22223;SDS011;11281;52.194;21.006;2022-08-03T01:03:43;9.45;;;8.05;;
22223;SDS011;11281;52.194;21.006;2022-08-03T01:12:00;14.35;;;8.60;;
22223;SDS011;11281;52.194;21.006;2022-08-03T01:16:15;8.98;;;7.32;;
22223;SDS011;11281;52.194;21.006;2022-08-03T01:20:32;9.43;;;7.70;;
22223;SDS011;11281;52.194;21.006;2022-08-03T01:33:48;9.48;;;7.60;;
22223;SDS011;11281;52.194;21.006;2022-08-03T01:37:56;12.13;;;7.78;;
22223;SDS011;11281;52.194;21.006;2022-08-03T01:42:03;8.82;;;7.80;;
22223;SDS011;11281;52.194;21.006;2022-08-03T01:46:07;9.50;;;8.10;;
22223;SDS011;11281;52.194;21.006;2022-08-03T01:50:11;9.23;;;7.97;;
22223;SDS011;11281;52.194;21.006;2022-08-03T01:54:15;10.00;;;8.02;;
22223;SDS011;11281;52.194;21.006;2022-08-03T01:58:18;8.93;;;7.70;;
22223;SDS011;11281;52.194;21.006;2022-08-03T02:02:21;8.73;;;7.03;;
22223;SDS011;11281;52.194;21.006;2022-08-03T02:06:23;8.50;;;6.55;;
22223;SDS011;11281;52.194;21.006;2022-08-03T02:10:27;7.97;;;7.20;;
22223;SDS011;11281;52.194;21.006;2022-08-03T02:14:30;8.18;;;7.38;;
22223;SDS011;11281;52.194;21.006;2022-08-03T02:18:34;9.85;;;8.13;;
22223;SDS011;11281;52.194;21.006;2022-08-03T02:22:40;9.73;;;8.00;;
22223;SDS011;11281;52.194;21.006;2022-08-03T02:26:44;9.45;;;7.85;;
22223;SDS011;11281;52.194;21.006;2022-08-03T02:30:49;10.43;;;8.15;;
22223;SDS011;11281;52.194;21.006;2022-08-03T02:34:55;8.77;;;7.63;;
22223;SDS011;11281;52.194;21.006;2022-08-03T02:38:59;12.70;;;9.18;;
22223;SDS011;11281;52.194;21.006;2022-08-03T02:43:07;10.10;;;7.85;;
22223;SDS011;11281;52.194;21.006;2022-08-03T02:47:12;8.57;;;7.50;;
22223;SDS011;11281;52.194;21.006;2022-08-03T02:51:15;9.00;;;8.05;;
22223;SDS011;11281;52.194;21.006;2022-08-03T02:55:19;9.18;;;8.23;;
22223;SDS011;11281;52.194;21.006;2022-08-03T02:59:22;10.60;;;8.35;;
22223;SDS011;11281;52.194;21.006;2022-08-03T03:03:26;8.75;;;7.72;;
22223;SDS011;11281;52.194;21.006;2022-08-03T03:07:28;9.18;;;8.20;;
22223;SDS011;11281;52.194;21.006;2022-08-03T03:11:32;8.38;;;7.57;;
22223;SDS011;11281;52.194;21.006;2022-08-03T03:15:43;8.70;;;7.75;;
22223;SDS011;11281;52.194;21.006;2022-08-03T03:19:47;11.15;;;7.88;;
22223;SDS011;11281;52.194;21.006;2022-08-03T03:23:51;8.73;;;7.72;;
22223;SDS011;11281;52.194;21.006;2022-08-03T03:27:53;11.00;;;8.00;;
22223;SDS011;11281;52.194;21.006;2022-08-03T03:31:55;11.65;;;7.75;;
22223;SDS011;11281;52.194;21.006;2022-08-03T03:35:57;9.07;;;8.18;;
22223;SDS011;11281;52.194;21.006;2022-08-03T03:39:59;10.43;;;7.60;;
22223;SDS011;11281;52.194;21.006;2022-08-03T03:44:01;9.10;;;8.18;;
22223;SDS011;11281;52.194;21.006;2022-08-03T03:48:03;8.93;;;8.05;;
22223;SDS011;11281;52.194;21.006;2022-08-03T03:52:06;9.77;;;8.23;;
22223;SDS011;11281;52.194;21.006;2022-08-03T03:56:08;10.02;;;8.07;;
22223;SDS011;11281;52.194;21.006;2022-08-03T04:00:11;7.38;;;6.65;;
22223;SDS011;11281;52.194;21.006;2022-08-03T04:04:14;8.95;;;7.80;;
22223;SDS011;11281;52.194;21.006;2022-08-03T04:08:34;11.55;;;7.70;;
22223;SDS011;11281;52.194;21.006;2022-08-03T04:12:54;9.57;;;6.68;;
22223;SDS011;11281;52.194;21.006;2022-08-03T04:17:00;9.50;;;7.47;;
22223;SDS011;11281;52.194;21.006;2022-08-03T04:21:08;10.45;;;6.97;;
22223;SDS011;11281;52.194;21.006;2022-08-03T04:25:14;10.82;;;9.00;;
22223;SDS011;11281;52.194;21.006;2022-08-03T04:29:19;10.35;;;8.75;;
22223;SDS011;11281;52.194;21.006;2022-08-03T04:33:22;13.82;;;9.30;;
22223;SDS011;11281;52.194;21.006;2022-08-03T04:41:39;16.42;;;12.93;;
22223;SDS011;11281;52.194;21.006;2022-08-03T04:45:41;16.50;;;12.90;;
22223;SDS011;11281;52.194;21.006;2022-08-03T04:49:46;16.05;;;12.65;;
22223;SDS011;11281;52.194;21.006;2022-08-03T04:53:49;14.35;;;12.40;;
22223;SDS011;11281;52.194;21.006;2022-08-03T04:57:51;15.20;;;13.10;;
22223;SDS011;11281;52.194;21.006;2022-08-03T05:01:53;21.52;;;13.73;;
22223;SDS011;11281;52.194;21.006;2022-08-03T05:05:54;14.13;;;12.15;;
22223;SDS011;11281;52.194;21.006;2022-08-03T05:09:56;15.13;;;12.38;;
22223;SDS011;11281;52.194;21.006;2022-08-03T05:13:58;18.50;;;11.80;;
22223;SDS011;11281;52.194;21.006;2022-08-03T05:18:00;13.27;;;11.55;;
22223;SDS011;11281;52.194;21.006;2022-08-03T05:22:01;12.50;;;10.68;;
22223;SDS011;11281;52.194;21.006;2022-08-03T05:26:03;14.35;;;10.75;;
22223;SDS011;11281;52.194;21.006;2022-08-03T05:30:04;12.75;;;10.82;;
22223;SDS011;11281;52.194;21.006;2022-08-03T05:34:07;17.20;;;10.90;;
22223;SDS011;11281;52.194;21.006;2022-08-03T05:38:08;16.00;;;11.43;;
22223;SDS011;11281;52.194;21.006;2022-08-03T05:42:10;14.00;;;10.60;;
22223;SDS011;11281;52.194;21.006;2022-08-03T05:46:11;15.05;;;11.55;;
22223;SDS011;11281;52.194;21.006;2022-08-03T05:50:13;14.45;;;10.80;;
22223;SDS011;11281;52.194;21.006;2022-08-03T05:54:15;15.82;;;11.70;;
22223;SDS011;11281;52.194;21.006;2022-08-03T05:58:16;15.18;;;12.15;;
22223;SDS011;11281;52.194;21.006;2022-08-03T06:02:18;19.10;;;12.10;;
22223;SDS011;11281;52.194;21.006;2022-08-03T06:06:20;17.50;;;11.68;;
22223;SDS011;11281;52.194;21.006;2022-08-03T06:10:22;12.00;;;9.85;;
22223;SDS011;11281;52.194;21.006;2022-08-03T06:14:23;15.52;;;11.35;;
22223;SDS011;11281;52.194;21.006;2022-08-03T06:18:26;13.73;;;11.20;;
22223;SDS011;11281;52.194;21.006;2022-08-03T06:22:27;12.57;;;10.88;;
22223;SDS011;11281;52.194;21.006;2022-08-03T06:26:29;16.38;;;11.48;;
22223;SDS011;11281;52.194;21.006;2022-08-03T06:30:32;14.98;;;10.93;;
22223;SDS011;11281;52.194;21.006;2022-08-03T06:34:34;14.85;;;10.43;;
22223;SDS011;11281;52.194;21.006;2022-08-03T06:38:36;14.02;;;10.57;;
22223;SDS011;11281;52.194;21.006;2022-08-03T06:42:37;15.40;;;10.57;;
22223;SDS011;11281;52.194;21.006;2022-08-03T06:46:39;12.50;;;10.98;;
22223;SDS011;11281;52.194;21.006;2022-08-03T06:50:41;15.55;;;10.88;;
22223;SDS011;11281;52.194;21.006;2022-08-03T06:54:44;11.55;;;9.95;;
22223;SDS011;11281;52.194;21.006;2022-08-03T06:58:45;12.52;;;9.82;;
22223;SDS011;11281;52.194;21.006;2022-08-03T07:02:47;12.50;;;10.10;;
22223;SDS011;11281;52.194;21.006;2022-08-03T07:06:49;16.02;;;10.25;;
22223;SDS011;11281;52.194;21.006;2022-08-03T07:10:51;12.88;;;9.65;;
22223;SDS011;11281;52.194;21.006;2022-08-03T07:14:53;11.48;;;9.02;;
22223;SDS011;11281;52.194;21.006;2022-08-03T07:18:55;11.10;;;9.90;;
22223;SDS011;11281;52.194;21.006;2022-08-03T07:22:57;12.57;;;9.52;;
22223;SDS011;11281;52.194;21.006;2022-08-03T07:26:59;10.60;;;9.30;;
22223;SDS011;11281;52.194;21.006;2022-08-03T07:31:00;13.95;;;9.57;;
22223;SDS011;11281;52.194;21.006;2022-08-03T07:35:03;14.32;;;10.20;;
22223;SDS011;11281;52.194;21.006;2022-08-03T07:39:06;13.20;;;9.95;;
22223;SDS011;11281;52.194;21.006;2022-08-03T07:43:07;12.70;;;9.52;;
22223;SDS011;11281;52.194;21.006;2022-08-03T07:47:10;16.45;;;10.68;;
22223;SDS011;11281;52.194;21.006;2022-08-03T07:51:12;17.42;;;9.15;;
22223;SDS011;11281;52.194;21.006;2022-08-03T07:55:14;14.85;;;7.40;;
22223;SDS011;11281;52.194;21.006;2022-08-03T07:59:17;11.07;;;6.30;;
22223;SDS011;11281;52.194;21.006;2022-08-03T08:03:19;8.95;;;6.18;;
22223;SDS011;11281;52.194;21.006;2022-08-03T08:07:26;9.48;;;6.05;;
22223;SDS011;11281;52.194;21.006;2022-08-03T08:11:28;8.75;;;6.00;;
22223;SDS011;11281;52.194;21.006;2022-08-03T08:15:29;7.43;;;5.43;;
22223;SDS011;11281;52.194;21.006;2022-08-03T08:19:32;9.70;;;4.97;;
22223;SDS011;11281;52.194;21.006;2022-08-03T08:23:33;9.30;;;6.75;;
22223;SDS011;11281;52.194;21.006;2022-08-03T08:27:44;3.83;;;3.42;;
22223;SDS011;11281;52.194;21.006;2022-08-03T08:31:48;3.35;;;3.05;;
22223;SDS011;11281;52.194;21.006;2022-08-03T08:35:50;3.45;;;2.78;;
22223;SDS011;11281;52.194;21.006;2022-08-03T08:39:54;4.47;;;3.28;;
22223;SDS011;11281;52.194;21.006;2022-08-03T08:43:56;4.30;;;2.92;;
22223;SDS011;11281;52.194;21.006;2022-08-03T08:47:59;4.82;;;3.30;;
22223;SDS011;11281;52.194;21.006;2022-08-03T08:52:03;3.53;;;2.78;;
22223;SDS011;11281;52.194;21.006;2022-08-03T08:56:08;5.85;;;3.28;;
22223;SDS011;11281;52.194;21.006;2022-08-03T09:00:16;7.00;;;3.22;;
22223;SDS011;11281;52.194;21.006;2022-08-03T09:04:17;5.35;;;3.15;;
22223;SDS011;11281;52.194;21.006;2022-08-03T09:08:19;5.07;;;3.22;;
22223;SDS011;11281;52.194;21.006;2022-08-03T09:12:23;4.65;;;2.83;;
22223;SDS011;11281;52.194;21.006;2022-08-03T09:16:25;6.60;;;4.18;;
22223;SDS011;11281;52.194;21.006;2022-08-03T09:20:28;4.30;;;3.08;;
22223;SDS011;11281;52.194;21.006;2022-08-03T09:24:33;3.85;;;2.40;;
22223;SDS011;11281;52.194;21.006;2022-08-03T09:28:36;2.05;;;1.90;;
22223;SDS011;11281;52.194;21.006;2022-08-03T09:32:38;2.55;;;1.80;;
22223;SDS011;11281;52.194;21.006;2022-08-03T09:36:44;3.67;;;2.78;;
22223;SDS011;11281;52.194;21.006;2022-08-03T09:40:50;5.75;;;3.25;;
22223;SDS011;11281;52.194;21.006;2022-08-03T09:44:52;6.15;;;3.47;;
22223;SDS011;11281;52.194;21.006;2022-08-03T09:49:07;3.35;;;2.85;;
22223;SDS011;11281;52.194;21.006;2022-08-03T09:53:11;3.25;;;2.95;;
22223;SDS011;11281;52.194;21.006;2022-08-03T09:57:23;4.75;;;3.05;;
22223;SDS011;11281;52.194;21.006;2022-08-03T10:01:31;4.38;;;3.20;;
22223;SDS011;11281;52.194;21.006;2022-08-03T10:05:34;5.65;;;2.97;;
22223;SDS011;11281;52.194;21.006;2022-08-03T10:09:37;3.80;;;2.95;;
22223;SDS011;11281;52.194;21.006;2022-08-03T10:13:56;3.63;;;2.85;;
22223;SDS011;11281;52.194;21.006;2022-08-03T10:17:58;4.07;;;3.00;;
22223;SDS011;11281;52.194;21.006;2022-08-03T10:22:02;3.42;;;3.13;;
22223;SDS011;11281;52.194;21.006;2022-08-03T10:26:15;5.70;;;2.97;;
22223;SDS011;11281;52.194;21.006;2022-08-03T10:30:19;4.78;;;2.72;;
22223;SDS011;11281;52.194;21.006;2022-08-03T10:34:23;5.07;;;3.60;;
22223;SDS011;11281;52.194;21.006;2022-08-03T10:38:36;3.88;;;2.80;;
22223;SDS011;11281;52.194;21.006;2022-08-03T10:42:46;3.67;;;2.92;;
22223;SDS011;11281;52.194;21.006;2022-08-03T10:46:54;5.28;;;2.92;;
22223;SDS011;11281;52.194;21.006;2022-08-03T10:50:57;3.45;;;2.50;;
22223;SDS011;11281;52.194;21.006;2022-08-03T10:55:00;3.22;;;2.75;;
22223;SDS011;11281;52.194;21.006;2022-08-03T11:08:38;3.45;;;2.90;;
22223;SDS011;11281;52.194;21.006;2022-08-03T11:12:25;3.47;;;2.92;;
22223;SDS011;11281;52.194;21.006;2022-08-03T11:16:32;6.85;;;2.47;;
22223;SDS011;11281;52.194;21.006;2022-08-03T11:24:58;4.85;;;2.92;;
22223;SDS011;11281;52.194;21.006;2022-08-03T11:33:31;3.70;;;2.60;;
22223;SDS011;11281;52.194;21.006;2022-08-03T11:37:33;3.05;;;2.67;;
22223;SDS011;11281;52.194;21.006;2022-08-03T11:41:35;4.35;;;2.63;;
22223;SDS011;11281;52.194;21.006;2022-08-03T11:45:37;4.97;;;2.47;;
22223;SDS011;11281;52.194;21.006;2022-08-03T11:49:38;2.88;;;2.53;;
22223;SDS011;11281;52.194;21.006;2022-08-03T11:53:40;2.50;;;2.25;;
22223;SDS011;11281;52.194;21.006;2022-08-03T11:57:43;3.65;;;2.30;;
22223;SDS011;11281;52.194;21.006;2022-08-03T12:01:46;2.78;;;2.38;;
22223;SDS011;11281;52.194;21.006;2022-08-03T12:05:52;3.42;;;2.42;;
22223;SDS011;11281;52.194;21.006;2022-08-03T12:10:07;3.38;;;2.40;;
22223;SDS011;11281;52.194;21.006;2022-08-03T12:14:15;2.47;;;2.25;;
22223;SDS011;11281;52.194;21.006;2022-08-03T12:18:20;3.17;;;2.42;;
22223;SDS011;11281;52.194;21.006;2022-08-03T12:22:32;2.88;;;2.50;;
22223;SDS011;11281;52.194;21.006;2022-08-03T12:26:47;3.73;;;2.33;;
22223;SDS011;11281;52.194;21.006;2022-08-03T12:30:51;3.17;;;2.30;;
22223;SDS011;11281;52.194;21.006;2022-08-03T12:34:53;2.47;;;2.28;;
22223;SDS011;11281;52.194;21.006;2022-08-03T12:38:59;2.33;;;2.13;;
22223;SDS011;11281;52.194;21.006;2022-08-03T12:43:11;4.05;;;2.60;;
22223;SDS011;11281;52.194;21.006;2022-08-03T12:47:14;2.88;;;2.08;;
22223;SDS011;11281;52.194;21.006;2022-08-03T12:51:16;3.08;;;2.78;;
22223;SDS011;11281;52.194;21.006;2022-08-03T12:55:18;5.22;;;2.58;;
22223;SDS011;11281;52.194;21.006;2022-08-03T12:59:25;3.65;;;2.47;;
22223;SDS011;11281;52.194;21.006;2022-08-03T13:03:37;3.17;;;2.83;;
22223;SDS011;11281;52.194;21.006;2022-08-03T13:07:45;3.45;;;2.50;;
22223;SDS011;11281;52.194;21.006;2022-08-03T13:11:47;3.55;;;2.80;;
22223;SDS011;11281;52.194;21.006;2022-08-03T13:16:06;3.17;;;2.75;;
22223;SDS011;11281;52.194;21.006;2022-08-03T13:20:08;3.28;;;2.50;;
22223;SDS011;11281;52.194;21.006;2022-08-03T13:24:11;3.92;;;2.47;;
22223;SDS011;11281;52.194;21.006;2022-08-03T13:28:13;5.20;;;2.85;;
22223;SDS011;11281;52.194;21.006;2022-08-03T13:32:14;3.10;;;2.55;;
22223;SDS011;11281;52.194;21.006;2022-08-03T13:36:16;2.75;;;2.55;;
22223;SDS011;11281;52.194;21.006;2022-08-03T13:40:18;3.63;;;2.63;;
22223;SDS011;11281;52.194;21.006;2022-08-03T13:44:20;4.18;;;2.75;;
22223;SDS011;11281;52.194;21.006;2022-08-03T13:48:22;3.28;;;2.60;;
22223;SDS011;11281;52.194;21.006;2022-08-03T13:52:24;3.03;;;2.53;;
22223;SDS011;11281;52.194;21.006;2022-08-03T13:56:26;3.05;;;2.70;;
22223;SDS011;11281;52.194;21.006;2022-08-03T14:00:37;5.90;;;3.05;;
22223;SDS011;11281;52.194;21.006;2022-08-03T14:04:39;2.97;;;2.72;;
22223;SDS011;11281;52.194;21.006;2022-08-03T14:08:41;3.45;;;2.75;;
22223;SDS011;11281;52.194;21.006;2022-08-03T14:12:42;3.58;;;2.83;;
22223;SDS011;11281;52.194;21.006;2022-08-03T14:16:44;3.25;;;2.75;;
22223;SDS011;11281;52.194;21.006;2022-08-03T14:20:46;3.20;;;2.83;;
22223;SDS011;11281;52.194;21.006;2022-08-03T14:24:47;3.65;;;3.15;;
22223;SDS011;11281;52.194;21.006;2022-08-03T14:28:49;2.85;;;2.58;;
22223;SDS011;11281;52.194;21.006;2022-08-03T14:32:51;3.13;;;2.58;;
22223;SDS011;11281;52.194;21.006;2022-08-03T14:36:52;5.78;;;3.28;;
22223;SDS011;11281;52.194;21.006;2022-08-03T14:40:54;3.47;;;3.22;;
22223;SDS011;11281;52.194;21.006;2022-08-03T14:45:00;5.05;;;3.30;;
22223;SDS011;11281;52.194;21.006;2022-08-03T14:49:02;5.07;;;2.88;;
22223;SDS011;11281;52.194;21.006;2022-08-03T14:53:04;4.85;;;3.00;;
22223;SDS011;11281;52.194;21.006;2022-08-03T14:57:06;11.38;;;3.25;;
22223;SDS011;11281;52.194;21.006;2022-08-03T15:01:08;3.53;;;2.90;;
22223;SDS011;11281;52.194;21.006;2022-08-03T15:05:10;3.05;;;2.85;;
22223;SDS011;11281;52.194;21.006;2022-08-03T15:09:12;3.28;;;2.92;;
22223;SDS011;11281;52.194;21.006;2022-08-03T15:13:13;3.47;;;3.08;;
22223;SDS011;11281;52.194;21.006;2022-08-03T15:17:16;3.60;;;3.28;;
22223;SDS011;11281;52.194;21.006;2022-08-03T15:21:18;3.78;;;3.47;;
22223;SDS011;11281;52.194;21.006;2022-08-03T15:25:20;3.70;;;3.40;;
22223;SDS011;11281;52.194;21.006;2022-08-03T15:29:22;3.70;;;3.33;;
22223;SDS011;11281;52.194;21.006;2022-08-03T15:33:25;5.15;;;3.30;;
22223;SDS011;11281;52.194;21.006;2022-08-03T15:37:27;4.60;;;3.28;;
22223;SDS011;11281;52.194;21.006;2022-08-03T15:41:29;5.90;;;3.58;;
22223;SDS011;11281;52.194;21.006;2022-08-03T15:45:32;6.50;;;4.50;;
22223;SDS011;11281;52.194;21.006;2022-08-03T15:49:33;9.70;;;5.35;;
22223;SDS011;11281;52.194;21.006;2022-08-03T15:53:35;6.28;;;4.35;;
22223;SDS011;11281;52.194;21.006;2022-08-03T15:57:37;4.20;;;3.42;;
22223;SDS011;11281;52.194;21.006;2022-08-03T16:01:41;7.53;;;3.50;;
22223;SDS011;11281;52.194;21.006;2022-08-03T16:05:43;6.43;;;3.42;;
22223;SDS011;11281;52.194;21.006;2022-08-03T16:09:44;5.97;;;4.32;;
22223;SDS011;11281;52.194;21.006;2022-08-03T16:13:46;5.13;;;3.90;;
22223;SDS011;11281;52.194;21.006;2022-08-03T16:17:48;5.43;;;3.75;;
22223;SDS011;11281;52.194;21.006;2022-08-03T16:21:50;4.10;;;3.70;;
22223;SDS011;11281;52.194;21.006;2022-08-03T16:25:52;7.30;;;3.92;;
22223;SDS011;11281;52.194;21.006;2022-08-03T16:29:53;4.10;;;3.72;;
22223;SDS011;11281;52.194;21.006;2022-08-03T16:33:55;6.03;;;3.53;;
22223;SDS011;11281;52.194;21.006;2022-08-03T16:37:57;11.15;;;3.58;;
22223;SDS011;11281;52.194;21.006;2022-08-03T16:41:59;6.10;;;4.28;;
22223;SDS011;11281;52.194;21.006;2022-08-03T16:46:02;5.65;;;4.07;;
22223;SDS011;11281;52.194;21.006;2022-08-03T16:50:04;4.40;;;3.47;;
22223;SDS011;11281;52.194;21.006;2022-08-03T16:54:07;3.75;;;3.40;;
22223;SDS011;11281;52.194;21.006;2022-08-03T16:58:08;7.35;;;3.50;;
22223;SDS011;11281;52.194;21.006;2022-08-03T17:02:13;5.72;;;3.95;;
22223;SDS011;11281;52.194;21.006;2022-08-03T17:06:22;7.50;;;3.80;;
22223;SDS011;11281;52.194;21.006;2022-08-03T17:10:25;8.98;;;4.40;;
22223;SDS011;11281;52.194;21.006;2022-08-03T17:14:26;4.78;;;4.05;;
22223;SDS011;11281;52.194;21.006;2022-08-03T17:18:29;4.50;;;4.10;;
22223;SDS011;11281;52.194;21.006;2022-08-03T17:22:38;4.75;;;3.78;;
22223;SDS011;11281;52.194;21.006;2022-08-03T17:26:56;4.20;;;3.83;;
22223;SDS011;11281;52.194;21.006;2022-08-03T17:31:03;6.63;;;3.75;;
22223;SDS011;11281;52.194;21.006;2022-08-03T17:35:23;7.75;;;4.22;;
22223;SDS011;11281;52.194;21.006;2022-08-03T17:39:28;4.93;;;4.45;;
22223;SDS011;11281;52.194;21.006;2022-08-03T17:43:30;4.20;;;3.80;;
22223;SDS011;11281;52.194;21.006;2022-08-03T17:47:33;6.25;;;4.45;;
22223;SDS011;11281;52.194;21.006;2022-08-03T17:55:42;6.10;;;4.60;;
22223;SDS011;11281;52.194;21.006;2022-08-03T18:00:06;4.97;;;4.57;;
22223;SDS011;11281;52.194;21.006;2022-08-03T18:04:35;8.40;;;4.90;;
22223;SDS011;11281;52.194;21.006;2022-08-03T18:08:44;7.15;;;4.82;;
22223;SDS011;11281;52.194;21.006;2022-08-03T18:13:00;10.02;;;4.85;;
22223;SDS011;11281;52.194;21.006;2022-08-03T18:17:07;7.13;;;5.10;;
22223;SDS011;11281;52.194;21.006;2022-08-03T18:21:15;7.50;;;5.07;;
22223;SDS011;11281;52.194;21.006;2022-08-03T18:25:18;6.85;;;5.15;;
22223;SDS011;11281;52.194;21.006;2022-08-03T18:29:21;8.52;;;4.85;;
22223;SDS011;11281;52.194;21.006;2022-08-03T18:33:23;12.15;;;5.15;;
22223;SDS011;11281;52.194;21.006;2022-08-03T18:37:28;10.95;;;5.57;;
22223;SDS011;11281;52.194;21.006;2022-08-03T18:41:30;7.03;;;5.32;;
22223;SDS011;11281;52.194;21.006;2022-08-03T18:45:35;6.53;;;5.25;;
22223;SDS011;11281;52.194;21.006;2022-08-03T19:03:34;11.15;;;5.60;;
22223;SDS011;11281;52.194;21.006;2022-08-03T19:07:36;7.07;;;5.40;;
22223;SDS011;11281;52.194;21.006;2022-08-03T19:11:42;8.48;;;5.45;;
22223;SDS011;11281;52.194;21.006;2022-08-03T19:15:50;6.85;;;5.68;;
22223;SDS011;11281;52.194;21.006;2022-08-03T19:19:57;9.05;;;5.55;;
22223;SDS011;11281;52.194;21.006;2022-08-03T19:24:00;8.27;;;5.38;;
22223;SDS011;11281;52.194;21.006;2022-08-03T19:28:06;8.57;;;5.38;;
22223;SDS011;11281;52.194;21.006;2022-08-03T19:32:08;8.10;;;6.43;;
22223;SDS011;11281;52.194;21.006;2022-08-03T19:36:19;8.63;;;6.28;;
22223;SDS011;11281;52.194;21.006;2022-08-03T19:40:22;7.43;;;5.80;;
22223;SDS011;11281;52.194;21.006;2022-08-03T19:44:28;8.40;;;6.15;;
22223;SDS011;11281;52.194;21.006;2022-08-03T19:48:31;9.15;;;6.70;;
22223;SDS011;11281;52.194;21.006;2022-08-03T19:52:35;8.32;;;5.97;;
22223;SDS011;11281;52.194;21.006;2022-08-03T19:56:41;7.88;;;6.68;;
22223;SDS011;11281;52.194;21.006;2022-08-03T20:00:47;7.05;;;6.25;;
22223;SDS011;11281;52.194;21.006;2022-08-03T20:04:50;14.65;;;7.75;;
22223;SDS011;11281;52.194;21.006;2022-08-03T20:08:52;10.07;;;7.10;;
22223;SDS011;11281;52.194;21.006;2022-08-03T20:12:53;8.45;;;6.78;;
22223;SDS011;11281;52.194;21.006;2022-08-03T20:16:56;9.52;;;7.00;;
22223;SDS011;11281;52.194;21.006;2022-08-03T20:20:58;9.25;;;7.10;;
22223;SDS011;11281;52.194;21.006;2022-08-03T20:25:07;8.88;;;7.05;;
22223;SDS011;11281;52.194;21.006;2022-08-03T20:29:11;8.43;;;6.85;;
22223;SDS011;11281;52.194;21.006;2022-08-03T20:33:15;9.02;;;7.40;;
22223;SDS011;11281;52.194;21.006;2022-08-03T20:37:17;9.68;;;7.93;;
22223;SDS011;11281;52.194;21.006;2022-08-03T20:41:19;8.73;;;6.85;;
22223;SDS011;11281;52.194;21.006;2022-08-03T20:45:21;10.43;;;7.78;;
22223;SDS011;11281;52.194;21.006;2022-08-03T20:49:22;9.00;;;7.32;;
22223;SDS011;11281;52.194;21.006;2022-08-03T20:53:24;10.07;;;7.63;;
22223;SDS011;11281;52.194;21.006;2022-08-03T20:57:28;9.60;;;7.70;;
22223;SDS011;11281;52.194;21.006;2022-08-03T21:01:31;11.05;;;8.27;;
22223;SDS011;11281;52.194;21.006;2022-08-03T21:05:38;11.10;;;8.57;;
22223;SDS011;11281;52.194;21.006;2022-08-03T21:09:43;13.73;;;8.63;;
22223;SDS011;11281;52.194;21.006;2022-08-03T21:13:57;9.90;;;8.20;;
22223;SDS011;11281;52.194;21.006;2022-08-03T21:18:07;12.00;;;8.63;;
22223;SDS011;11281;52.194;21.006;2022-08-03T21:22:12;10.38;;;8.25;;
22223;SDS011;11281;52.194;21.006;2022-08-03T21:26:16;12.45;;;8.18;;
22223;SDS011;11281;52.194;21.006;2022-08-03T21:30:21;10.80;;;8.57;;
22223;SDS011;11281;52.194;21.006;2022-08-03T21:34:26;14.07;;;8.98;;
22223;SDS011;11281;52.194;21.006;2022-08-03T21:38:27;10.60;;;8.25;;
22223;SDS011;11281;52.194;21.006;2022-08-03T21:42:29;12.48;;;9.35;;
22223;SDS011;11281;52.194;21.006;2022-08-03T21:46:33;12.50;;;9.60;;
22223;SDS011;11281;52.194;21.006;2022-08-03T21:50:46;13.98;;;9.00;;
22223;SDS011;11281;52.194;21.006;2022-08-03T21:54:49;12.38;;;11.07;;
22223;SDS011;11281;52.194;21.006;2022-08-03T21:58:59;13.65;;;10.90;;
22223;SDS011;11281;52.194;21.006;2022-08-03T22:03:06;12.77;;;10.13;;
22223;SDS011;11281;52.194;21.006;2022-08-03T22:07:08;15.68;;;10.90;;
22223;SDS011;11281;52.194;21.006;2022-08-03T22:11:10;12.35;;;9.77;;
22223;SDS011;11281;52.194;21.006;2022-08-03T22:15:12;18.65;;;9.60;;
22223;SDS011;11281;52.194;21.006;2022-08-03T22:19:15;11.25;;;9.52;;
22223;SDS011;11281;52.194;21.006;2022-08-03T22:23:18;10.63;;;8.75;;
22223;SDS011;11281;52.194;21.006;2022-08-03T22:27:26;11.05;;;8.80;;
22223;SDS011;11281;52.194;21.006;2022-08-03T22:31:31;14.68;;;9.55;;
22223;SDS011;11281;52.194;21.006;2022-08-03T22:35:34;10.35;;;9.10;;
22223;SDS011;11281;52.194;21.006;2022-08-03T22:39:43;12.18;;;9.20;;
22223;SDS011;11281;52.194;21.006;2022-08-03T22:43:45;10.80;;;8.10;;
22223;SDS011;11281;52.194;21.006;2022-08-03T22:47:46;12.48;;;8.55;;
22223;SDS011;11281;52.194;21.006;2022-08-03T22:51:53;10.95;;;8.70;;
22223;SDS011;11281;52.194;21.006;2022-08-03T22:55:58;9.77;;;8.15;;
22223;SDS011;11281;52.194;21.006;2022-08-03T23:00:02;11.30;;;8.57;;
22223;SDS011;11281;52.194;21.006;2022-08-03T23:04:15;11.35;;;8.02;;
22223;SDS011;11281;52.194;21.006;2022-08-03T23:08:28;8.52;;;7.53;;
22223;SDS011;11281;52.194;21.006;2022-08-03T23:12:34;10.70;;;8.75;;
22223;SDS011;11281;52.194;21.006;2022-08-03T23:16:40;11.68;;;7.80;;
22223;SDS011;11281;52.194;21.006;2022-08-03T23:20:43;8.38;;;7.30;;
22223;SDS011;11281;52.194;21.006;2022-08-03T23:24:46;8.63;;;7.53;;
22223;SDS011;11281;52.194;21.006;2022-08-03T23:28:48;10.57;;;7.95;;
22223;SDS011;11281;52.194;21.006;2022-08-03T23:32:50;9.07;;;6.78;;
22223;SDS011;11281;52.194;21.006;2022-08-03T23:36:54;10.15;;;7.15;;
22223;SDS011;11281;52.194;21.006;2022-08-03T23:41:00;7.97;;;7.05;;
22223;SDS011;11281;52.194;21.006;2022-08-03T23:45:04;8.27;;;7.25;;
22223;SDS011;11281;52.194;21.006;2022-08-03T23:49:06;11.10;;;7.05;;
22223;SDS011;11281;52.194;21.006;2022-08-03T23:53:23;7.95;;;6.97;;
